sensor_id;sensor_type;location;lat;lon;timestamp;temperature;humidity
67870;DHT22;54673;52.262;6.830;2023-08-21T00:02:24;21.80;72.70
67870;DHT22;54673;52.262;6.830;2023-08-21T00:04:53;21.70;72.80
67870;DHT22;54673;52.262;6.830;2023-08-21T00:07:19;21.70;72.80
67870;DHT22;54673;52.262;6.830;2023-08-21T00:09:45;21.70;73.00
67870;DHT22;54673;52.262;6.830;2023-08-21T00:12:10;21.60;72.90
67870;DHT22;54673;52.262;6.830;2023-08-21T00:14:36;21.80;73.20
67870;DHT22;54673;52.262;6.830;2023-08-21T00:17:02;21.50;72.90
67870;DHT22;54673;52.262;6.830;2023-08-21T00:19:29;21.50;73.40
67870;DHT22;54673;52.262;6.830;2023-08-21T00:21:54;21.50;73.80
67870;DHT22;54673;52.262;6.830;2023-08-21T00:24:20;21.40;73.70
67870;DHT22;54673;52.262;6.830;2023-08-21T00:26:46;21.40;73.70
67870;DHT22;54673;52.262;6.830;2023-08-21T00:29:11;21.40;73.70
67870;DHT22;54673;52.262;6.830;2023-08-21T00:31:37;21.40;74.30
67870;DHT22;54673;52.262;6.830;2023-08-21T00:34:03;21.30;73.80
67870;DHT22;54673;52.262;6.830;2023-08-21T00:36:28;21.20;74.20
67870;DHT22;54673;52.262;6.830;2023-08-21T00:38:54;21.30;74.30
67870;DHT22;54673;52.262;6.830;2023-08-21T00:41:19;21.20;74.30
67870;DHT22;54673;52.262;6.830;2023-08-21T00:43:45;21.20;74.40
67870;DHT22;54673;52.262;6.830;2023-08-21T00:46:11;21.20;74.60
67870;DHT22;54673;52.262;6.830;2023-08-21T00:48:37;21.20;74.70
67870;DHT22;54673;52.262;6.830;2023-08-21T00:51:03;21.20;75.10
67870;DHT22;54673;52.262;6.830;2023-08-21T00:53:30;21.20;75.00
67870;DHT22;54673;52.262;6.830;2023-08-21T00:55:56;21.10;75.00
67870;DHT22;54673;52.262;6.830;2023-08-21T00:58:22;21.10;74.90
67870;DHT22;54673;52.262;6.830;2023-08-21T01:00:49;21.10;75.50
67870;DHT22;54673;52.262;6.830;2023-08-21T01:03:15;21.10;75.60
67870;DHT22;54673;52.262;6.830;2023-08-21T01:05:41;21.00;76.30
67870;DHT22;54673;52.262;6.830;2023-08-21T01:08:14;21.00;75.30
67870;DHT22;54673;52.262;6.830;2023-08-21T01:15:54;20.90;75.50
67870;DHT22;54673;52.262;6.830;2023-08-21T01:18:20;20.90;75.90
67870;DHT22;54673;52.262;6.830;2023-08-21T01:20:47;20.90;75.80
67870;DHT22;54673;52.262;6.830;2023-08-21T01:23:35;20.90;75.60
67870;DHT22;54673;52.262;6.830;2023-08-21T01:26:01;20.80;76.10
67870;DHT22;54673;52.262;6.830;2023-08-21T01:28:27;20.80;76.00
67870;DHT22;54673;52.262;6.830;2023-08-21T01:31:11;20.80;76.80
67870;DHT22;54673;52.262;6.830;2023-08-21T01:33:45;20.80;76.40
67870;DHT22;54673;52.262;6.830;2023-08-21T01:36:13;20.80;77.00
67870;DHT22;54673;52.262;6.830;2023-08-21T01:38:39;20.70;77.10
67870;DHT22;54673;52.262;6.830;2023-08-21T01:41:05;20.70;77.10
67870;DHT22;54673;52.262;6.830;2023-08-21T01:43:31;20.70;76.90
67870;DHT22;54673;52.262;6.830;2023-08-21T01:45:57;20.70;76.50
67870;DHT22;54673;52.262;6.830;2023-08-21T01:48:22;20.60;76.90
67870;DHT22;54673;52.262;6.830;2023-08-21T01:50:48;20.60;77.20
67870;DHT22;54673;52.262;6.830;2023-08-21T01:53:14;20.60;77.00
67870;DHT22;54673;52.262;6.830;2023-08-21T01:55:39;20.60;77.10
67870;DHT22;54673;52.262;6.830;2023-08-21T01:58:05;20.60;77.30
67870;DHT22;54673;52.262;6.830;2023-08-21T02:00:30;20.50;77.40
67870;DHT22;54673;52.262;6.830;2023-08-21T02:02:56;20.50;77.00
67870;DHT22;54673;52.262;6.830;2023-08-21T02:05:22;20.50;77.40
67870;DHT22;54673;52.262;6.830;2023-08-21T02:07:47;20.40;77.20
67870;DHT22;54673;52.262;6.830;2023-08-21T02:10:13;20.40;77.50
67870;DHT22;54673;52.262;6.830;2023-08-21T02:12:39;20.40;77.70
67870;DHT22;54673;52.262;6.830;2023-08-21T02:15:05;20.40;77.30
67870;DHT22;54673;52.262;6.830;2023-08-21T02:17:31;20.40;77.50
67870;DHT22;54673;52.262;6.830;2023-08-21T02:19:57;20.40;78.30
67870;DHT22;54673;52.262;6.830;2023-08-21T02:22:23;20.30;77.50
67870;DHT22;54673;52.262;6.830;2023-08-21T02:24:48;20.30;78.20
67870;DHT22;54673;52.262;6.830;2023-08-21T02:27:14;20.30;77.90
67870;DHT22;54673;52.262;6.830;2023-08-21T02:29:40;20.20;78.00
67870;DHT22;54673;52.262;6.830;2023-08-21T02:32:05;20.20;78.00
67870;DHT22;54673;52.262;6.830;2023-08-21T02:34:31;20.20;78.00
67870;DHT22;54673;52.262;6.830;2023-08-21T02:36:56;20.20;77.90
67870;DHT22;54673;52.262;6.830;2023-08-21T02:39:23;20.20;78.50
67870;DHT22;54673;52.262;6.830;2023-08-21T02:41:49;20.20;78.80
67870;DHT22;54673;52.262;6.830;2023-08-21T02:44:15;20.10;78.40
67870;DHT22;54673;52.262;6.830;2023-08-21T02:46:40;20.10;78.50
67870;DHT22;54673;52.262;6.830;2023-08-21T02:49:06;20.10;78.40
67870;DHT22;54673;52.262;6.830;2023-08-21T02:51:32;20.00;78.60
67870;DHT22;54673;52.262;6.830;2023-08-21T02:53:57;20.10;78.80
67870;DHT22;54673;52.262;6.830;2023-08-21T02:56:23;20.00;78.30
67870;DHT22;54673;52.262;6.830;2023-08-21T02:58:48;20.00;78.70
67870;DHT22;54673;52.262;6.830;2023-08-21T03:01:14;19.90;79.00
67870;DHT22;54673;52.262;6.830;2023-08-21T03:03:39;19.90;78.80
67870;DHT22;54673;52.262;6.830;2023-08-21T03:06:05;19.90;78.80
67870;DHT22;54673;52.262;6.830;2023-08-21T03:08:31;19.90;78.80
67870;DHT22;54673;52.262;6.830;2023-08-21T03:10:57;19.90;79.20
67870;DHT22;54673;52.262;6.830;2023-08-21T03:13:22;19.80;78.90
67870;DHT22;54673;52.262;6.830;2023-08-21T03:15:48;19.80;79.50
67870;DHT22;54673;52.262;6.830;2023-08-21T03:18:13;19.80;79.30
67870;DHT22;54673;52.262;6.830;2023-08-21T03:20:44;19.80;79.70
67870;DHT22;54673;52.262;6.830;2023-08-21T03:23:10;19.70;79.20
67870;DHT22;54673;52.262;6.830;2023-08-21T03:25:36;19.70;79.00
67870;DHT22;54673;52.262;6.830;2023-08-21T03:28:02;19.70;79.20
67870;DHT22;54673;52.262;6.830;2023-08-21T03:30:27;19.70;79.50
67870;DHT22;54673;52.262;6.830;2023-08-21T03:32:53;19.70;79.30
67870;DHT22;54673;52.262;6.830;2023-08-21T03:35:18;19.60;79.50
67870;DHT22;54673;52.262;6.830;2023-08-21T03:37:44;19.60;79.70
67870;DHT22;54673;52.262;6.830;2023-08-21T03:40:10;19.60;80.10
67870;DHT22;54673;52.262;6.830;2023-08-21T03:42:35;19.50;79.70
67870;DHT22;54673;52.262;6.830;2023-08-21T03:45:02;19.50;79.50
67870;DHT22;54673;52.262;6.830;2023-08-21T03:47:30;19.50;79.70
67870;DHT22;54673;52.262;6.830;2023-08-21T03:49:55;19.50;80.00
67870;DHT22;54673;52.262;6.830;2023-08-21T03:52:21;19.50;79.80
67870;DHT22;54673;52.262;6.830;2023-08-21T03:54:47;19.50;79.80
67870;DHT22;54673;52.262;6.830;2023-08-21T03:57:12;19.50;79.90
67870;DHT22;54673;52.262;6.830;2023-08-21T03:59:38;19.40;80.10
67870;DHT22;54673;52.262;6.830;2023-08-21T04:02:04;19.40;79.80
67870;DHT22;54673;52.262;6.830;2023-08-21T04:04:29;19.40;80.10
67870;DHT22;54673;52.262;6.830;2023-08-21T04:06:55;19.30;79.80
67870;DHT22;54673;52.262;6.830;2023-08-21T04:09:21;19.30;80.10
67870;DHT22;54673;52.262;6.830;2023-08-21T04:11:46;19.30;80.30
67870;DHT22;54673;52.262;6.830;2023-08-21T04:14:12;19.30;80.50
67870;DHT22;54673;52.262;6.830;2023-08-21T04:16:37;19.30;81.00
67870;DHT22;54673;52.262;6.830;2023-08-21T04:19:03;19.20;80.80
67870;DHT22;54673;52.262;6.830;2023-08-21T04:21:29;19.20;80.80
67870;DHT22;54673;52.262;6.830;2023-08-21T04:23:54;19.00;80.20
67870;DHT22;54673;52.262;6.830;2023-08-21T04:26:20;19.10;80.70
67870;DHT22;54673;52.262;6.830;2023-08-21T04:28:46;19.20;81.00
67870;DHT22;54673;52.262;6.830;2023-08-21T04:31:12;19.10;80.90
67870;DHT22;54673;52.262;6.830;2023-08-21T04:33:37;19.10;80.60
67870;DHT22;54673;52.262;6.830;2023-08-21T04:36:03;19.00;80.70
67870;DHT22;54673;52.262;6.830;2023-08-21T04:38:29;19.00;81.20
67870;DHT22;54673;52.262;6.830;2023-08-21T04:40:54;19.00;81.20
67870;DHT22;54673;52.262;6.830;2023-08-21T04:43:20;19.00;81.10
67870;DHT22;54673;52.262;6.830;2023-08-21T04:45:49;19.00;81.10
67870;DHT22;54673;52.262;6.830;2023-08-21T04:48:18;19.00;81.40
67870;DHT22;54673;52.262;6.830;2023-08-21T04:50:45;18.90;81.70
67870;DHT22;54673;52.262;6.830;2023-08-21T04:53:11;18.90;81.70
67870;DHT22;54673;52.262;6.830;2023-08-21T04:55:37;19.10;81.90
67870;DHT22;54673;52.262;6.830;2023-08-21T04:58:06;18.90;81.70
67870;DHT22;54673;52.262;6.830;2023-08-21T05:00:31;18.90;81.60
67870;DHT22;54673;52.262;6.830;2023-08-21T05:02:57;18.90;81.70
67870;DHT22;54673;52.262;6.830;2023-08-21T05:05:23;18.90;81.70
67870;DHT22;54673;52.262;6.830;2023-08-21T05:07:48;18.80;82.20
67870;DHT22;54673;52.262;6.830;2023-08-21T05:10:14;18.80;81.90
67870;DHT22;54673;52.262;6.830;2023-08-21T05:12:40;18.80;82.00
67870;DHT22;54673;52.262;6.830;2023-08-21T05:15:05;19.00;82.30
67870;DHT22;54673;52.262;6.830;2023-08-21T05:17:31;18.70;82.30
67870;DHT22;54673;52.262;6.830;2023-08-21T05:19:57;18.70;82.20
67870;DHT22;54673;52.262;6.830;2023-08-21T05:22:22;18.90;82.20
67870;DHT22;54673;52.262;6.830;2023-08-21T05:24:48;18.70;82.40
67870;DHT22;54673;52.262;6.830;2023-08-21T05:27:13;18.70;82.60
67870;DHT22;54673;52.262;6.830;2023-08-21T05:29:39;19.10;82.70
67870;DHT22;54673;52.262;6.830;2023-08-21T05:32:05;18.70;82.40
67870;DHT22;54673;52.262;6.830;2023-08-21T05:34:31;18.70;82.70
67870;DHT22;54673;52.262;6.830;2023-08-21T05:36:56;18.60;83.30
67870;DHT22;54673;52.262;6.830;2023-08-21T05:39:22;18.70;83.10
67870;DHT22;54673;52.262;6.830;2023-08-21T05:41:48;18.70;82.70
67870;DHT22;54673;52.262;6.830;2023-08-21T05:44:13;18.60;83.50
67870;DHT22;54673;52.262;6.830;2023-08-21T05:46:39;18.70;83.70
67870;DHT22;54673;52.262;6.830;2023-08-21T05:49:04;18.60;84.10
67870;DHT22;54673;52.262;6.830;2023-08-21T05:51:30;18.60;83.70
67870;DHT22;54673;52.262;6.830;2023-08-21T05:53:56;18.60;83.20
67870;DHT22;54673;52.262;6.830;2023-08-21T05:56:22;18.90;84.10
67870;DHT22;54673;52.262;6.830;2023-08-21T05:58:48;18.60;84.20
67870;DHT22;54673;52.262;6.830;2023-08-21T06:01:14;18.60;84.10
67870;DHT22;54673;52.262;6.830;2023-08-21T06:03:39;18.60;84.20
67870;DHT22;54673;52.262;6.830;2023-08-21T06:06:05;18.60;84.50
67870;DHT22;54673;52.262;6.830;2023-08-21T06:08:31;18.60;84.70
67870;DHT22;54673;52.262;6.830;2023-08-21T06:10:57;18.60;85.20
67870;DHT22;54673;52.262;6.830;2023-08-21T06:13:22;18.60;85.20
67870;DHT22;54673;52.262;6.830;2023-08-21T06:15:48;18.60;84.10
67870;DHT22;54673;52.262;6.830;2023-08-21T06:18:14;18.70;84.80
67870;DHT22;54673;52.262;6.830;2023-08-21T06:20:44;18.80;84.40
67870;DHT22;54673;52.262;6.830;2023-08-21T06:23:10;18.70;84.40
67870;DHT22;54673;52.262;6.830;2023-08-21T06:25:36;18.70;84.40
67870;DHT22;54673;52.262;6.830;2023-08-21T06:28:02;18.70;84.90
67870;DHT22;54673;52.262;6.830;2023-08-21T06:30:28;18.70;84.20
67870;DHT22;54673;52.262;6.830;2023-08-21T06:32:54;18.70;84.30
67870;DHT22;54673;52.262;6.830;2023-08-21T06:35:20;18.70;85.00
67870;DHT22;54673;52.262;6.830;2023-08-21T06:37:45;18.70;84.60
67870;DHT22;54673;52.262;6.830;2023-08-21T06:40:11;18.80;84.50
67870;DHT22;54673;52.262;6.830;2023-08-21T06:42:37;18.70;84.20
67870;DHT22;54673;52.262;6.830;2023-08-21T06:45:04;18.70;84.80
67870;DHT22;54673;52.262;6.830;2023-08-21T06:47:30;18.70;86.60
67870;DHT22;54673;52.262;6.830;2023-08-21T06:49:56;18.70;89.70
67870;DHT22;54673;52.262;6.830;2023-08-21T06:52:22;18.80;87.40
67870;DHT22;54673;52.262;6.830;2023-08-21T06:54:48;18.80;87.00
67870;DHT22;54673;52.262;6.830;2023-08-21T06:57:13;18.80;86.50
67870;DHT22;54673;52.262;6.830;2023-08-21T06:59:39;18.80;86.30
67870;DHT22;54673;52.262;6.830;2023-08-21T07:02:05;19.00;91.30
67870;DHT22;54673;52.262;6.830;2023-08-21T07:04:31;19.00;88.60
67870;DHT22;54673;52.262;6.830;2023-08-21T07:06:59;19.00;87.60
67870;DHT22;54673;52.262;6.830;2023-08-21T07:09:24;19.30;87.70
67870;DHT22;54673;52.262;6.830;2023-08-21T07:11:50;18.90;86.90
67870;DHT22;54673;52.262;6.830;2023-08-21T07:14:15;18.90;86.70
67870;DHT22;54673;52.262;6.830;2023-08-21T07:16:43;19.00;86.90
67870;DHT22;54673;52.262;6.830;2023-08-21T07:19:08;19.00;86.30
67870;DHT22;54673;52.262;6.830;2023-08-21T07:21:34;19.00;86.30
67870;DHT22;54673;52.262;6.830;2023-08-21T07:24:02;19.00;86.10
67870;DHT22;54673;52.262;6.830;2023-08-21T07:26:29;19.00;86.20
67870;DHT22;54673;52.262;6.830;2023-08-21T07:28:54;19.10;86.30
67870;DHT22;54673;52.262;6.830;2023-08-21T07:31:20;19.10;86.70
67870;DHT22;54673;52.262;6.830;2023-08-21T07:33:46;19.10;86.40
67870;DHT22;54673;52.262;6.830;2023-08-21T07:36:11;19.10;85.80
67870;DHT22;54673;52.262;6.830;2023-08-21T07:38:44;19.20;86.50
67870;DHT22;54673;52.262;6.830;2023-08-21T07:41:11;19.40;90.00
67870;DHT22;54673;52.262;6.830;2023-08-21T07:43:38;19.30;87.10
67870;DHT22;54673;52.262;6.830;2023-08-21T07:46:04;19.30;86.10
67870;DHT22;54673;52.262;6.830;2023-08-21T07:48:31;19.40;87.40
67870;DHT22;54673;52.262;6.830;2023-08-21T07:50:57;19.40;86.60
67870;DHT22;54673;52.262;6.830;2023-08-21T07:53:23;19.50;86.80
67870;DHT22;54673;52.262;6.830;2023-08-21T07:55:49;19.50;86.70
67870;DHT22;54673;52.262;6.830;2023-08-21T07:58:15;19.50;86.50
67870;DHT22;54673;52.262;6.830;2023-08-21T08:00:40;19.60;86.10
67870;DHT22;54673;52.262;6.830;2023-08-21T08:03:08;19.50;85.80
67870;DHT22;54673;52.262;6.830;2023-08-21T08:05:34;19.60;85.30
67870;DHT22;54673;52.262;6.830;2023-08-21T08:08:00;19.70;84.60
67870;DHT22;54673;52.262;6.830;2023-08-21T08:10:26;19.70;84.30
67870;DHT22;54673;52.262;6.830;2023-08-21T08:12:51;19.80;84.10
67870;DHT22;54673;52.262;6.830;2023-08-21T08:15:17;19.80;83.50
67870;DHT22;54673;52.262;6.830;2023-08-21T08:17:43;19.90;82.30
67870;DHT22;54673;52.262;6.830;2023-08-21T08:20:11;20.10;82.90
67870;DHT22;54673;52.262;6.830;2023-08-21T08:22:37;20.00;83.10
67870;DHT22;54673;52.262;6.830;2023-08-21T08:25:03;20.00;83.00
67870;DHT22;54673;52.262;6.830;2023-08-21T08:27:31;20.10;83.10
67870;DHT22;54673;52.262;6.830;2023-08-21T08:29:57;20.10;82.50
67870;DHT22;54673;52.262;6.830;2023-08-21T08:32:23;20.20;82.20
67870;DHT22;54673;52.262;6.830;2023-08-21T08:34:48;20.20;81.80
67870;DHT22;54673;52.262;6.830;2023-08-21T08:37:14;20.30;80.70
67870;DHT22;54673;52.262;6.830;2023-08-21T08:39:40;20.40;81.80
67870;DHT22;54673;52.262;6.830;2023-08-21T08:42:06;20.50;81.10
67870;DHT22;54673;52.262;6.830;2023-08-21T08:44:35;20.50;80.60
67870;DHT22;54673;52.262;6.830;2023-08-21T08:47:01;20.60;80.90
67870;DHT22;54673;52.262;6.830;2023-08-21T08:49:28;20.60;79.90
67870;DHT22;54673;52.262;6.830;2023-08-21T08:51:55;20.70;80.70
67870;DHT22;54673;52.262;6.830;2023-08-21T08:54:22;20.80;80.30
67870;DHT22;54673;52.262;6.830;2023-08-21T08:56:49;20.90;80.60
67870;DHT22;54673;52.262;6.830;2023-08-21T08:59:15;20.90;80.90
67870;DHT22;54673;52.262;6.830;2023-08-21T09:01:41;21.00;80.40
67870;DHT22;54673;52.262;6.830;2023-08-21T09:04:07;21.10;80.10
67870;DHT22;54673;52.262;6.830;2023-08-21T09:06:33;21.10;79.70
67870;DHT22;54673;52.262;6.830;2023-08-21T09:08:59;21.20;78.90
67870;DHT22;54673;52.262;6.830;2023-08-21T09:11:25;21.30;78.80
67870;DHT22;54673;52.262;6.830;2023-08-21T09:13:53;21.30;78.20
67870;DHT22;54673;52.262;6.830;2023-08-21T09:16:20;21.40;77.80
67870;DHT22;54673;52.262;6.830;2023-08-21T09:18:50;21.50;77.80
67870;DHT22;54673;52.262;6.830;2023-08-21T09:21:22;21.00;76.60
67870;DHT22;54673;52.262;6.830;2023-08-21T09:23:48;21.60;77.20
67870;DHT22;54673;52.262;6.830;2023-08-21T09:26:22;21.70;77.30
67870;DHT22;54673;52.262;6.830;2023-08-21T09:28:51;21.60;77.50
67870;DHT22;54673;52.262;6.830;2023-08-21T09:31:23;21.90;73.70
67870;DHT22;54673;52.262;6.830;2023-08-21T09:33:56;22.00;74.00
67870;DHT22;54673;52.262;6.830;2023-08-21T09:36:22;22.00;74.30
67870;DHT22;54673;52.262;6.830;2023-08-21T09:38:50;22.10;74.50
67870;DHT22;54673;52.262;6.830;2023-08-21T09:41:22;22.10;73.70
67870;DHT22;54673;52.262;6.830;2023-08-21T09:43:48;22.10;73.90
67870;DHT22;54673;52.262;6.830;2023-08-21T09:46:15;22.20;73.90
67870;DHT22;54673;52.262;6.830;2023-08-21T09:48:44;22.20;74.00
67870;DHT22;54673;52.262;6.830;2023-08-21T09:51:11;22.10;74.10
67870;DHT22;54673;52.262;6.830;2023-08-21T09:53:37;22.30;74.00
67870;DHT22;54673;52.262;6.830;2023-08-21T09:56:03;22.40;73.60
67870;DHT22;54673;52.262;6.830;2023-08-21T09:58:29;22.40;74.00
67870;DHT22;54673;52.262;6.830;2023-08-21T10:00:59;22.50;73.40
67870;DHT22;54673;52.262;6.830;2023-08-21T10:03:25;22.60;73.50
67870;DHT22;54673;52.262;6.830;2023-08-21T10:05:54;22.60;73.70
67870;DHT22;54673;52.262;6.830;2023-08-21T10:08:25;22.70;73.20
67870;DHT22;54673;52.262;6.830;2023-08-21T10:10:52;22.80;73.40
67870;DHT22;54673;52.262;6.830;2023-08-21T10:13:18;22.80;73.20
67870;DHT22;54673;52.262;6.830;2023-08-21T10:15:44;22.80;72.50
67870;DHT22;54673;52.262;6.830;2023-08-21T10:18:30;22.90;73.20
67870;DHT22;54673;52.262;6.830;2023-08-21T10:20:56;23.00;71.90
67870;DHT22;54673;52.262;6.830;2023-08-21T10:23:27;23.10;71.70
67870;DHT22;54673;52.262;6.830;2023-08-21T10:26:03;23.20;71.20
67870;DHT22;54673;52.262;6.830;2023-08-21T10:31:34;23.30;71.00
67870;DHT22;54673;52.262;6.830;2023-08-21T10:34:03;23.40;71.10
67870;DHT22;54673;52.262;6.830;2023-08-21T10:42:05;23.60;70.80
67870;DHT22;54673;52.262;6.830;2023-08-21T10:47:21;23.80;70.00
67870;DHT22;54673;52.262;6.830;2023-08-21T10:49:55;23.90;69.60
67870;DHT22;54673;52.262;6.830;2023-08-21T10:52:35;24.00;70.00
67870;DHT22;54673;52.262;6.830;2023-08-21T10:55:01;24.00;70.10
67870;DHT22;54673;52.262;6.830;2023-08-21T10:57:32;24.10;69.30
67870;DHT22;54673;52.262;6.830;2023-08-21T11:00:04;24.10;69.30
67870;DHT22;54673;52.262;6.830;2023-08-21T11:02:32;24.20;70.00
67870;DHT22;54673;52.262;6.830;2023-08-21T11:05:00;24.30;66.90
67870;DHT22;54673;52.262;6.830;2023-08-21T11:07:26;24.40;69.60
67870;DHT22;54673;52.262;6.830;2023-08-21T11:09:52;24.50;69.80
67870;DHT22;54673;52.262;6.830;2023-08-21T11:12:21;24.60;69.10
67870;DHT22;54673;52.262;6.830;2023-08-21T11:14:47;24.70;68.70
67870;DHT22;54673;52.262;6.830;2023-08-21T11:17:13;24.80;69.50
67870;DHT22;54673;52.262;6.830;2023-08-21T11:19:40;24.90;69.30
67870;DHT22;54673;52.262;6.830;2023-08-21T11:22:06;25.00;68.80
67870;DHT22;54673;52.262;6.830;2023-08-21T11:24:42;25.10;69.30
67870;DHT22;54673;52.262;6.830;2023-08-21T11:27:09;25.10;68.50
67870;DHT22;54673;52.262;6.830;2023-08-21T11:29:37;25.20;68.50
67870;DHT22;54673;52.262;6.830;2023-08-21T11:32:12;25.30;68.10
67870;DHT22;54673;52.262;6.830;2023-08-21T11:34:38;25.40;68.30
67870;DHT22;54673;52.262;6.830;2023-08-21T11:37:04;25.40;67.80
67870;DHT22;54673;52.262;6.830;2023-08-21T11:39:49;25.60;68.60
67870;DHT22;54673;52.262;6.830;2023-08-21T11:42:15;25.60;68.50
67870;DHT22;54673;52.262;6.830;2023-08-21T11:44:50;25.70;68.00
67870;DHT22;54673;52.262;6.830;2023-08-21T11:47:17;25.90;68.20
67870;DHT22;54673;52.262;6.830;2023-08-21T11:49:44;25.90;67.40
67870;DHT22;54673;52.262;6.830;2023-08-21T11:52:12;26.00;67.50
67870;DHT22;54673;52.262;6.830;2023-08-21T11:54:40;26.10;65.70
67870;DHT22;54673;52.262;6.830;2023-08-21T11:57:07;26.20;65.50
67870;DHT22;54673;52.262;6.830;2023-08-21T11:59:33;26.30;66.80
67870;DHT22;54673;52.262;6.830;2023-08-21T12:02:05;26.40;66.40
67870;DHT22;54673;52.262;6.830;2023-08-21T12:04:33;26.40;66.20
67870;DHT22;54673;52.262;6.830;2023-08-21T12:06:58;26.60;66.30
67870;DHT22;54673;52.262;6.830;2023-08-21T12:09:24;26.60;65.80
67870;DHT22;54673;52.262;6.830;2023-08-21T12:11:50;26.70;65.80
67870;DHT22;54673;52.262;6.830;2023-08-21T12:14:15;26.80;65.50
67870;DHT22;54673;52.262;6.830;2023-08-21T12:16:42;26.90;65.20
67870;DHT22;54673;52.262;6.830;2023-08-21T12:19:07;27.00;65.50
67870;DHT22;54673;52.262;6.830;2023-08-21T12:21:35;27.10;65.10
67870;DHT22;54673;52.262;6.830;2023-08-21T12:24:04;27.20;65.40
67870;DHT22;54673;52.262;6.830;2023-08-21T12:26:30;27.30;65.20
67870;DHT22;54673;52.262;6.830;2023-08-21T12:28:55;27.30;64.00
67870;DHT22;54673;52.262;6.830;2023-08-21T12:31:21;27.40;64.00
67870;DHT22;54673;52.262;6.830;2023-08-21T12:33:47;27.50;62.60
67870;DHT22;54673;52.262;6.830;2023-08-21T12:36:12;27.60;63.70
67870;DHT22;54673;52.262;6.830;2023-08-21T12:38:38;27.70;60.80
67870;DHT22;54673;52.262;6.830;2023-08-21T12:41:03;27.70;62.60
67870;DHT22;54673;52.262;6.830;2023-08-21T12:43:30;27.80;63.20
67870;DHT22;54673;52.262;6.830;2023-08-21T12:45:56;27.90;62.30
67870;DHT22;54673;52.262;6.830;2023-08-21T12:48:22;28.00;62.70
67870;DHT22;54673;52.262;6.830;2023-08-21T12:50:48;28.10;62.80
67870;DHT22;54673;52.262;6.830;2023-08-21T12:53:13;28.10;61.90
67870;DHT22;54673;52.262;6.830;2023-08-21T12:55:39;28.20;62.50
67870;DHT22;54673;52.262;6.830;2023-08-21T12:58:04;28.30;62.10
67870;DHT22;54673;52.262;6.830;2023-08-21T13:00:31;28.30;62.10
67870;DHT22;54673;52.262;6.830;2023-08-21T13:02:57;28.40;62.20
67870;DHT22;54673;52.262;6.830;2023-08-21T13:05:23;28.50;61.30
67870;DHT22;54673;52.262;6.830;2023-08-21T13:07:49;28.50;61.20
67870;DHT22;54673;52.262;6.830;2023-08-21T13:10:14;28.60;61.40
67870;DHT22;54673;52.262;6.830;2023-08-21T13:12:40;28.70;62.00
67870;DHT22;54673;52.262;6.830;2023-08-21T13:15:06;28.70;60.80
67870;DHT22;54673;52.262;6.830;2023-08-21T13:17:33;28.80;60.70
67870;DHT22;54673;52.262;6.830;2023-08-21T13:19:59;28.90;60.70
67870;DHT22;54673;52.262;6.830;2023-08-21T13:22:24;28.90;61.40
67870;DHT22;54673;52.262;6.830;2023-08-21T13:24:50;29.00;60.70
67870;DHT22;54673;52.262;6.830;2023-08-21T13:27:16;29.10;61.20
67870;DHT22;54673;52.262;6.830;2023-08-21T13:29:41;29.10;60.80
67870;DHT22;54673;52.262;6.830;2023-08-21T13:32:07;29.20;59.40
67870;DHT22;54673;52.262;6.830;2023-08-21T13:34:33;29.20;59.80
67870;DHT22;54673;52.262;6.830;2023-08-21T13:36:59;29.30;60.40
67870;DHT22;54673;52.262;6.830;2023-08-21T13:39:24;29.30;60.00
67870;DHT22;54673;52.262;6.830;2023-08-21T13:41:51;29.10;57.90
67870;DHT22;54673;52.262;6.830;2023-08-21T13:44:17;29.40;59.60
67870;DHT22;54673;52.262;6.830;2023-08-21T13:46:43;29.50;60.00
67870;DHT22;54673;52.262;6.830;2023-08-21T13:49:09;29.50;58.80
67870;DHT22;54673;52.262;6.830;2023-08-21T13:51:34;29.50;58.80
67870;DHT22;54673;52.262;6.830;2023-08-21T13:54:02;29.60;59.30
67870;DHT22;54673;52.262;6.830;2023-08-21T13:56:28;29.60;59.40
67870;DHT22;54673;52.262;6.830;2023-08-21T13:58:53;29.60;59.30
67870;DHT22;54673;52.262;6.830;2023-08-21T14:01:19;29.70;59.10
67870;DHT22;54673;52.262;6.830;2023-08-21T14:03:45;29.70;59.00
67870;DHT22;54673;52.262;6.830;2023-08-21T14:06:11;29.80;59.30
67870;DHT22;54673;52.262;6.830;2023-08-21T14:08:37;29.80;58.40
67870;DHT22;54673;52.262;6.830;2023-08-21T14:11:03;29.80;58.80
67870;DHT22;54673;52.262;6.830;2023-08-21T14:13:29;29.90;59.20
67870;DHT22;54673;52.262;6.830;2023-08-21T14:15:54;29.90;59.30
67870;DHT22;54673;52.262;6.830;2023-08-21T14:18:20;29.90;59.10
67870;DHT22;54673;52.262;6.830;2023-08-21T14:20:46;30.00;58.80
67870;DHT22;54673;52.262;6.830;2023-08-21T14:23:11;30.00;58.20
67870;DHT22;54673;52.262;6.830;2023-08-21T14:25:45;30.00;58.30
67870;DHT22;54673;52.262;6.830;2023-08-21T14:28:10;30.10;58.10
67870;DHT22;54673;52.262;6.830;2023-08-21T14:30:36;30.10;58.20
67870;DHT22;54673;52.262;6.830;2023-08-21T14:33:01;30.20;58.30
67870;DHT22;54673;52.262;6.830;2023-08-21T14:35:27;30.20;57.50
67870;DHT22;54673;52.262;6.830;2023-08-21T14:37:53;30.20;57.20
67870;DHT22;54673;52.262;6.830;2023-08-21T14:40:18;30.30;57.50
67870;DHT22;54673;52.262;6.830;2023-08-21T14:42:44;30.40;57.60
67870;DHT22;54673;52.262;6.830;2023-08-21T14:45:10;30.40;57.40
67870;DHT22;54673;52.262;6.830;2023-08-21T14:47:36;30.40;57.20
67870;DHT22;54673;52.262;6.830;2023-08-21T14:50:12;30.50;57.10
67870;DHT22;54673;52.262;6.830;2023-08-21T14:52:43;30.50;57.00
67870;DHT22;54673;52.262;6.830;2023-08-21T14:55:09;30.60;56.90
67870;DHT22;54673;52.262;6.830;2023-08-21T14:57:35;30.60;56.50
67870;DHT22;54673;52.262;6.830;2023-08-21T15:00:10;30.70;56.50
67870;DHT22;54673;52.262;6.830;2023-08-21T15:02:45;30.80;56.50
67870;DHT22;54673;52.262;6.830;2023-08-21T15:05:11;30.80;56.80
67870;DHT22;54673;52.262;6.830;2023-08-21T15:07:41;30.80;56.40
67870;DHT22;54673;52.262;6.830;2023-08-21T15:10:07;30.80;56.70
67870;DHT22;54673;52.262;6.830;2023-08-21T15:12:34;30.90;55.20
67870;DHT22;54673;52.262;6.830;2023-08-21T15:15:26;30.80;56.30
67870;DHT22;54673;52.262;6.830;2023-08-21T15:17:52;30.90;56.30
67870;DHT22;54673;52.262;6.830;2023-08-21T15:20:18;30.70;55.40
67870;DHT22;54673;52.262;6.830;2023-08-21T15:23:11;31.00;55.70
67870;DHT22;54673;52.262;6.830;2023-08-21T15:25:41;31.10;55.20
67870;DHT22;54673;52.262;6.830;2023-08-21T15:28:07;31.10;55.80
67870;DHT22;54673;52.262;6.830;2023-08-21T15:30:33;31.10;54.90
67870;DHT22;54673;52.262;6.830;2023-08-21T15:32:58;31.10;54.20
67870;DHT22;54673;52.262;6.830;2023-08-21T15:35:24;31.20;55.30
67870;DHT22;54673;52.262;6.830;2023-08-21T15:37:50;31.20;54.70
67870;DHT22;54673;52.262;6.830;2023-08-21T15:40:15;31.20;52.00
67870;DHT22;54673;52.262;6.830;2023-08-21T15:42:41;31.30;54.30
67870;DHT22;54673;52.262;6.830;2023-08-21T15:45:08;31.20;56.10